createdAt,value
2023-02-12T00:01:43.510Z,96.34
2023-02-12T00:04:11.135Z,97.42
2023-02-12T00:06:39.442Z,98.63
2023-02-12T00:09:07.072Z,98.65
2023-02-12T00:11:34.711Z,98.55
2023-02-12T00:14:03.093Z,97.85
2023-02-12T00:16:30.818Z,98.17
2023-02-12T00:19:00.839Z,98.74
2023-02-12T00:21:28.892Z,98.22
2023-02-12T00:23:56.559Z,97.52
2023-02-12T00:26:24.827Z,96.52
2023-02-12T00:28:52.814Z,95.56
2023-02-12T00:31:23.027Z,96.01
2023-02-12T00:33:50.795Z,96.63
2023-02-12T00:36:21.164Z,97.16
2023-02-12T00:38:49.526Z,98.44
2023-02-12T00:41:17.180Z,99.27
2023-02-12T00:43:44.871Z,99.66
2023-02-12T00:46:12.732Z,100.00
2023-02-12T00:48:40.413Z,100.00
2023-02-12T00:51:08.209Z,100.00
2023-02-12T00:53:37.481Z,100.00
2023-02-12T00:56:05.734Z,100.00
2023-02-12T00:58:33.512Z,100.00
2023-02-12T01:01:01.271Z,100.00
2023-02-12T01:03:28.996Z,100.00
2023-02-12T01:05:57.347Z,99.88
2023-02-12T01:08:25.348Z,99.62
2023-02-12T01:10:58.934Z,98.77
2023-02-12T01:13:27.281Z,98.79
2023-02-12T01:16:09.198Z,98.74
2023-02-12T01:18:37.984Z,98.91
2023-02-12T01:21:10.768Z,98.84
2023-02-12T01:23:38.355Z,99.08
2023-02-12T01:26:10.665Z,99.01
2023-02-12T01:28:38.358Z,98.62
2023-02-12T01:31:10.159Z,98.32
2023-02-12T01:33:37.833Z,98.69
2023-02-12T01:36:05.724Z,98.86
2023-02-12T01:38:33.400Z,98.74
2023-02-12T01:41:04.816Z,98.53
2023-02-12T01:43:34.667Z,98.18
2023-02-12T01:46:02.860Z,97.73
2023-02-12T01:48:35.376Z,96.86
2023-02-12T01:51:03.827Z,96.96
2023-02-12T01:53:36.766Z,97.28
2023-02-12T01:56:04.939Z,97.91
2023-02-12T01:58:37.428Z,98.18
2023-02-12T02:01:07.483Z,98.24
2023-02-12T02:03:35.571Z,98.45
2023-02-12T02:06:07.897Z,98.00
2023-02-12T02:08:35.499Z,98.13
2023-02-12T02:11:23.118Z,97.39
2023-02-12T02:14:09.670Z,97.26
2023-02-12T02:16:38.169Z,97.87
2023-02-12T02:19:10.541Z,98.07
2023-02-12T02:22:05.716Z,97.72
2023-02-12T02:24:55.147Z,97.60
2023-02-12T02:27:29.545Z,97.69
2023-02-12T02:30:30.109Z,97.18
2023-02-12T02:33:03.945Z,98.33
2023-02-12T02:35:36.509Z,98.62
2023-02-12T02:38:10.455Z,98.41
2023-02-12T02:40:42.913Z,98.14
2023-02-12T02:43:12.415Z,98.68
2023-02-12T02:45:45.007Z,98.42
2023-02-12T02:48:16.269Z,98.21
2023-02-12T02:50:48.066Z,97.84
2023-02-12T02:53:18.596Z,97.84
2023-02-12T02:55:50.042Z,97.44
2023-02-12T02:58:19.441Z,97.32
2023-02-12T03:00:50.513Z,97.55
2023-02-12T03:03:22.120Z,97.61
2023-02-12T03:05:51.922Z,97.77
2023-02-12T03:08:24.201Z,97.85
2023-02-12T03:10:54.421Z,97.77
2023-02-12T03:13:24.766Z,99.00
2023-02-12T03:15:56.825Z,99.30
2023-02-12T03:18:27.390Z,99.62
2023-02-12T03:20:58.852Z,99.77
2023-02-12T03:23:28.231Z,99.53
2023-02-12T03:25:59.247Z,99.25
2023-02-12T03:28:29.607Z,98.56
2023-02-12T03:31:04.833Z,98.38
2023-02-12T03:33:38.146Z,97.43
2023-02-12T03:36:10.906Z,96.76
2023-02-12T03:38:42.215Z,96.10
2023-02-12T03:41:12.415Z,95.71
2023-02-12T03:43:50.184Z,95.08
2023-02-12T03:46:22.465Z,93.14
2023-02-12T03:48:58.152Z,94.29
2023-02-12T03:51:30.226Z,94.91
2023-02-12T03:53:57.655Z,96.82
2023-02-12T03:56:27.050Z,95.92
2023-02-12T03:58:54.630Z,96.29
2023-02-12T04:01:23.738Z,96.49
2023-02-12T04:03:51.547Z,96.51
2023-02-12T04:06:23.727Z,96.51
2023-02-12T04:08:51.386Z,97.33
2023-02-12T04:11:27.490Z,97.27
2023-02-12T04:14:07.675Z,97.63
2023-02-12T04:16:42.866Z,98.12
2023-02-12T04:19:11.883Z,98.51
2023-02-12T04:21:45.666Z,99.02
2023-02-12T04:24:18.521Z,98.87
2023-02-12T04:26:50.833Z,98.39
2023-02-12T04:29:23.049Z,98.59
2023-02-12T04:31:55.407Z,99.47
2023-02-12T04:34:28.597Z,99.65
2023-02-12T04:37:00.574Z,99.85
2023-02-12T04:39:30.383Z,99.56
2023-02-12T04:41:59.815Z,99.25
2023-02-12T04:44:28.874Z,99.68
2023-02-12T04:46:57.966Z,99.66
2023-02-12T04:49:26.066Z,99.78
2023-02-12T04:51:53.822Z,99.64
2023-02-12T04:54:22.424Z,99.74
2023-02-12T04:56:50.436Z,100.00
2023-02-12T04:59:18.375Z,100.00
2023-02-12T05:01:46.315Z,99.94
2023-02-12T05:04:17.194Z,100.00
2023-02-12T05:06:45.650Z,99.83
2023-02-12T05:09:15.896Z,99.75
2023-02-12T05:11:43.805Z,99.57
2023-02-12T05:14:11.497Z,98.91
2023-02-12T05:16:39.193Z,98.67
2023-02-12T05:19:09.390Z,98.64
2023-02-12T05:21:38.634Z,98.44
2023-02-12T05:24:06.973Z,98.29
2023-02-12T05:26:34.983Z,97.97
2023-02-12T05:29:03.323Z,97.64
2023-02-12T05:31:31.090Z,98.15
2023-02-12T05:33:58.778Z,98.04
2023-02-12T05:36:26.353Z,98.76
2023-02-12T05:38:58.930Z,100.00
2023-02-12T05:41:26.672Z,100.00
2023-02-12T05:43:54.481Z,100.00
2023-02-12T05:46:22.821Z,100.00
2023-02-12T05:48:50.432Z,100.00
2023-02-12T05:51:19.992Z,100.00
2023-02-12T05:53:47.643Z,100.00
2023-02-12T05:56:18.398Z,100.00
2023-02-12T05:58:48.167Z,100.00
2023-02-12T06:01:18.550Z,100.00
2023-02-12T06:03:46.295Z,99.99
2023-02-12T06:06:14.255Z,100.00
2023-02-12T06:08:42.151Z,100.00
2023-02-12T06:11:12.113Z,100.00
2023-02-12T06:13:41.144Z,100.00
2023-02-12T06:16:09.001Z,100.00
2023-02-12T06:18:37.014Z,100.00
2023-02-12T06:21:04.851Z,100.00
2023-02-12T06:23:32.723Z,100.00
2023-02-12T06:26:00.317Z,100.00
2023-02-12T06:28:27.983Z,100.00
2023-02-12T06:30:57.054Z,100.00
2023-02-12T06:33:24.739Z,100.00
2023-02-12T06:35:52.305Z,100.00
2023-02-12T06:38:19.908Z,100.00
2023-02-12T06:40:47.507Z,100.00
2023-02-12T06:43:15.162Z,100.00
2023-02-12T06:45:42.761Z,100.00
2023-02-12T06:48:11.650Z,100.00
2023-02-12T06:50:39.243Z,100.00
2023-02-12T06:53:06.815Z,100.00
2023-02-12T06:55:35.606Z,100.00
2023-02-12T06:58:03.197Z,100.00
2023-02-12T07:00:30.917Z,100.00
2023-02-12T07:02:58.597Z,100.00
2023-02-12T07:05:27.623Z,100.00
2023-02-12T07:07:55.188Z,100.00
2023-02-12T07:10:22.787Z,100.00
2023-02-12T07:12:50.355Z,100.00
2023-02-12T07:15:18.181Z,100.00
2023-02-12T07:17:45.761Z,100.00
2023-02-12T07:20:14.109Z,100.00
2023-02-12T07:22:43.030Z,100.00
2023-02-12T07:25:10.578Z,100.00
2023-02-12T07:27:38.614Z,100.00
2023-02-12T07:30:07.495Z,100.00
2023-02-12T07:32:35.388Z,100.00
2023-02-12T07:35:03.022Z,100.00
2023-02-12T07:37:30.633Z,100.00
2023-02-12T07:39:59.595Z,100.00
2023-02-12T07:42:27.222Z,100.00
2023-02-12T07:44:54.828Z,100.00
2023-02-12T07:47:22.421Z,100.00
2023-02-12T07:49:49.985Z,100.00
2023-02-12T07:52:17.566Z,100.00
2023-02-12T07:54:45.217Z,100.00
2023-02-12T07:57:14.228Z,100.00
2023-02-12T07:59:41.849Z,100.00
2023-02-12T08:02:10.638Z,100.00
2023-02-12T08:04:38.428Z,100.00
2023-02-12T08:07:06.056Z,100.00
2023-02-12T08:09:33.674Z,100.00
2023-02-12T08:12:01.317Z,100.00
2023-02-12T08:14:30.839Z,100.00
2023-02-12T08:16:58.414Z,100.00
2023-02-12T08:19:26.865Z,100.00
2023-02-12T08:21:55.705Z,99.41
2023-02-12T08:24:23.760Z,99.01
2023-02-12T08:26:51.715Z,97.73
2023-02-12T08:29:21.405Z,98.37
2023-02-12T08:31:51.321Z,97.02
2023-02-12T08:34:20.263Z,97.06
2023-02-12T08:36:49.344Z,96.58
2023-02-12T08:39:17.220Z,95.06
2023-02-12T08:41:45.122Z,95.21
2023-02-12T08:44:13.401Z,95.94
2023-02-12T08:46:44.164Z,94.97
2023-02-12T08:49:16.225Z,94.93
2023-02-12T08:51:44.312Z,93.33
2023-02-12T08:54:13.965Z,94.22
2023-02-12T08:56:42.242Z,93.45
2023-02-12T08:59:10.339Z,93.11
2023-02-12T09:01:40.968Z,92.95
2023-02-12T09:04:09.534Z,91.91
2023-02-12T09:06:38.539Z,90.85
2023-02-12T09:09:07.224Z,91.20
2023-02-12T09:11:35.286Z,90.17
2023-02-12T09:14:05.091Z,87.26
2023-02-12T09:16:35.187Z,87.78
2023-02-12T09:19:03.095Z,87.21
2023-02-12T09:21:30.766Z,87.01
2023-02-12T09:23:59.799Z,88.82
2023-02-12T09:26:27.423Z,90.32
2023-02-12T09:28:55.398Z,88.64
2023-02-12T09:31:26.550Z,86.67
2023-02-12T09:33:55.419Z,87.32
2023-02-12T09:36:23.276Z,90.07
2023-02-12T09:38:51.119Z,90.23
2023-02-12T09:41:42.606Z,88.96
2023-02-12T09:44:13.217Z,88.47
2023-02-12T09:46:44.685Z,88.53
2023-02-12T09:49:19.092Z,89.34
2023-02-12T09:51:51.556Z,89.61
2023-02-12T09:54:21.768Z,86.82
2023-02-12T09:56:53.395Z,88.41
2023-02-12T09:59:30.054Z,86.49
2023-02-12T10:01:58.881Z,84.71
2023-02-12T10:04:27.489Z,84.21
2023-02-12T10:07:03.248Z,84.44
2023-02-12T10:09:40.525Z,84.74
2023-02-12T10:12:14.292Z,83.63
2023-02-12T10:15:14.467Z,84.20
2023-02-12T10:17:43.675Z,83.18
2023-02-12T10:20:34.625Z,83.84
2023-02-12T10:23:12.295Z,81.84
2023-02-12T10:25:47.351Z,81.96
2023-02-12T10:28:19.565Z,81.55
2023-02-12T10:30:49.565Z,79.19
2023-02-12T10:33:18.930Z,81.96
2023-02-12T10:35:50.434Z,81.85
2023-02-12T10:38:21.126Z,80.88
2023-02-12T10:40:50.303Z,79.96
2023-02-12T10:43:19.221Z,78.77
2023-02-12T10:45:46.801Z,80.56
2023-02-12T10:48:18.380Z,80.63
2023-02-12T10:50:53.025Z,77.10
2023-02-12T10:53:23.309Z,78.09
2023-02-12T10:55:51.101Z,78.14
2023-02-12T10:58:22.813Z,79.29
2023-02-12T11:00:57.834Z,79.96
2023-02-12T11:03:30.249Z,79.50
2023-02-12T11:05:58.158Z,77.25
2023-02-12T11:08:31.852Z,78.70
2023-02-12T11:11:06.134Z,76.94
2023-02-12T11:13:35.383Z,74.02
2023-02-12T11:16:03.472Z,74.11
2023-02-12T11:18:33.244Z,75.61
2023-02-12T11:21:02.556Z,75.69
2023-02-12T11:23:32.032Z,74.79
2023-02-12T11:26:01.447Z,73.80
2023-02-12T11:28:29.796Z,74.01
2023-02-12T11:31:01.213Z,75.79
2023-02-12T11:33:31.880Z,74.19
2023-02-12T11:36:03.009Z,73.77
2023-02-12T11:38:34.434Z,74.79
2023-02-12T11:41:07.408Z,75.71
2023-02-12T11:43:38.415Z,75.01
2023-02-12T11:46:09.260Z,74.13
2023-02-12T11:48:39.049Z,75.68
2023-02-12T11:51:09.304Z,73.98
2023-02-12T11:53:40.119Z,77.04
2023-02-12T11:56:10.014Z,75.48
2023-02-12T11:58:37.700Z,77.67
2023-02-12T12:01:13.589Z,77.69
2023-02-12T12:03:46.460Z,75.72
2023-02-12T12:06:29.261Z,76.91
2023-02-12T12:09:01.660Z,74.04
2023-02-12T12:11:35.730Z,74.84
2023-02-12T12:14:08.340Z,75.12
2023-02-12T12:16:58.438Z,73.82
2023-02-12T12:19:47.419Z,75.52
2023-02-12T12:22:20.206Z,75.22
2023-02-12T12:24:53.963Z,75.97
2023-02-12T12:27:47.616Z,75.97
2023-02-12T12:30:21.314Z,76.07
2023-02-12T12:32:53.467Z,74.46
2023-02-12T12:35:22.601Z,72.79
2023-02-12T12:37:55.990Z,72.59
2023-02-12T12:40:39.373Z,73.62
2023-02-12T12:43:14.272Z,74.07
2023-02-12T12:45:57.827Z,74.34
2023-02-12T12:48:36.277Z,74.38
2023-02-12T12:51:13.714Z,72.78
2023-02-12T12:53:55.502Z,74.12
2023-02-12T12:56:34.432Z,74.82
2023-02-12T12:59:30.379Z,73.27
2023-02-12T13:02:16.471Z,72.60
2023-02-12T13:04:56.462Z,72.29
2023-02-12T13:07:39.346Z,73.03
2023-02-12T13:10:18.296Z,73.95
2023-02-12T13:12:53.023Z,72.74
2023-02-12T13:15:28.219Z,74.23
2023-02-12T13:17:59.960Z,72.33
2023-02-12T13:20:36.705Z,72.35
2023-02-12T13:23:08.004Z,72.98
2023-02-12T13:25:38.847Z,73.32
2023-02-12T13:28:07.305Z,72.06
2023-02-12T13:30:38.460Z,72.39
2023-02-12T13:33:10.756Z,71.45
2023-02-12T13:35:42.688Z,69.53
2023-02-12T13:38:16.207Z,70.82
2023-02-12T13:40:43.987Z,70.05
2023-02-12T13:43:21.681Z,70.08
2023-02-12T13:45:52.839Z,71.78
2023-02-12T13:48:37.866Z,71.08
2023-02-12T13:51:13.188Z,72.68
2023-02-12T13:53:48.689Z,72.85
2023-02-12T13:56:29.481Z,73.56
2023-02-12T13:59:00.331Z,72.60
2023-02-12T14:01:46.514Z,72.25
2023-02-12T14:04:26.115Z,70.89
2023-02-12T14:07:00.959Z,71.33
2023-02-12T14:09:33.926Z,71.14
2023-02-12T14:12:02.252Z,70.01
2023-02-12T14:14:33.032Z,70.58
2023-02-12T14:17:34.247Z,72.29
2023-02-12T14:20:08.900Z,70.23
2023-02-12T14:23:21.638Z,70.07
2023-02-12T14:25:58.168Z,69.37
2023-02-12T14:28:29.925Z,70.30
2023-02-12T14:31:41.738Z,70.73
2023-02-12T14:34:50.069Z,71.27
2023-02-12T14:37:19.696Z,71.94
2023-02-12T14:39:48.675Z,71.89
2023-02-12T14:42:44.804Z,71.30
2023-02-12T14:45:31.029Z,72.44
2023-02-12T14:47:58.822Z,73.21
2023-02-12T14:50:31.711Z,73.86
2023-02-12T14:53:09.415Z,74.09
2023-02-12T14:55:39.288Z,75.31
2023-02-12T14:58:17.718Z,75.16
2023-02-12T15:00:47.122Z,76.06
2023-02-12T15:03:19.887Z,75.97
2023-02-12T15:05:51.344Z,76.56
2023-02-12T15:08:27.622Z,76.21
2023-02-12T15:11:00.597Z,77.28
2023-02-12T15:13:30.644Z,77.75
2023-02-12T15:16:02.781Z,78.30
2023-02-12T15:18:33.045Z,77.92
2023-02-12T15:21:02.092Z,78.59
2023-02-12T15:23:39.575Z,79.64
2023-02-12T15:26:15.650Z,80.38
2023-02-12T15:28:43.603Z,80.17
2023-02-12T15:31:11.533Z,80.15
2023-02-12T15:33:42.975Z,80.61
2023-02-12T15:36:12.169Z,81.63
2023-02-12T15:38:42.466Z,83.19
2023-02-12T15:41:26.537Z,82.77
2023-02-12T15:43:54.453Z,83.00
2023-02-12T15:46:22.165Z,83.82
2023-02-12T15:48:49.775Z,84.41
2023-02-12T15:51:21.394Z,84.17
2023-02-12T15:53:49.176Z,85.46
2023-02-12T15:56:19.728Z,85.15
2023-02-12T15:58:49.533Z,85.10
2023-02-12T16:01:19.228Z,86.37
2023-02-12T16:03:51.301Z,86.87
2023-02-12T16:06:19.879Z,87.49
2023-02-12T16:08:50.181Z,88.09
2023-02-12T16:11:21.774Z,87.91
2023-02-12T16:13:51.500Z,87.92
2023-02-12T16:16:23.640Z,87.34
2023-02-12T16:19:17.369Z,88.45
2023-02-12T16:21:46.047Z,88.69
2023-02-12T16:24:23.960Z,88.92
2023-02-12T16:26:53.222Z,89.31
2023-02-12T16:29:21.043Z,89.61
2023-02-12T16:32:00.011Z,89.62
2023-02-12T16:34:36.030Z,89.26
2023-02-12T16:37:04.674Z,90.01
2023-02-12T16:40:18.637Z,89.69
2023-02-12T16:43:04.022Z,90.19
2023-02-12T16:45:39.104Z,91.28
2023-02-12T16:48:23.325Z,91.06
2023-02-12T16:50:53.059Z,92.05
2023-02-12T16:53:27.506Z,93.25
2023-02-12T16:55:55.552Z,94.27
2023-02-12T16:58:25.761Z,94.41
2023-02-12T17:00:54.107Z,94.32
2023-02-12T17:03:21.701Z,93.96
2023-02-12T17:05:51.803Z,94.68
2023-02-12T17:08:21.800Z,95.70
2023-02-12T17:10:49.798Z,96.62
2023-02-12T17:13:17.867Z,97.50
2023-02-12T17:15:51.114Z,97.72
2023-02-12T17:18:18.716Z,99.15
2023-02-12T17:20:48.969Z,98.71
2023-02-12T17:23:16.806Z,99.17
2023-02-12T17:25:44.388Z,99.72
2023-02-12T17:28:12.477Z,100.00
2023-02-12T17:30:40.225Z,100.00
2023-02-12T17:33:09.418Z,100.00
2023-02-12T17:35:38.811Z,100.00
2023-02-12T17:38:06.472Z,100.00
2023-02-12T17:40:36.074Z,100.00
2023-02-12T17:43:03.709Z,100.00
2023-02-12T17:45:31.394Z,100.00
2023-02-12T17:47:59.280Z,100.00
2023-02-12T17:50:28.241Z,100.00
2023-02-12T17:52:55.829Z,100.00
2023-02-12T17:55:23.457Z,100.00
2023-02-12T17:57:55.314Z,100.00
2023-02-12T18:00:23.594Z,100.00
2023-02-12T18:02:51.329Z,100.00
2023-02-12T18:05:19.373Z,100.00
2023-02-12T18:07:48.324Z,100.00
2023-02-12T18:10:15.971Z,100.00
2023-02-12T18:12:43.610Z,100.00
2023-02-12T18:15:11.376Z,100.00
2023-02-12T18:17:38.957Z,100.00
2023-02-12T18:20:08.123Z,100.00
2023-02-12T18:22:35.711Z,100.00
2023-02-12T18:25:04.897Z,100.00
2023-02-12T18:27:32.488Z,100.00
2023-02-12T18:30:00.121Z,100.00
2023-02-12T18:32:27.818Z,100.00
2023-02-12T18:34:55.420Z,100.00
2023-02-12T18:37:23.039Z,100.00
2023-02-12T18:39:50.652Z,100.00
2023-02-12T18:42:19.610Z,100.00
2023-02-12T18:44:47.647Z,100.00
2023-02-12T18:47:15.316Z,100.00
2023-02-12T18:49:42.928Z,100.00
2023-02-12T18:52:10.562Z,100.00
2023-02-12T18:54:38.187Z,100.00
2023-02-12T18:57:05.801Z,100.00
2023-02-12T18:59:34.729Z,100.00
2023-02-12T19:02:03.995Z,100.00
2023-02-12T19:04:31.760Z,100.00
2023-02-12T19:06:59.390Z,100.00
2023-02-12T19:09:27.496Z,100.00
2023-02-12T19:11:56.520Z,100.00
2023-02-12T19:14:25.583Z,100.00
2023-02-12T19:16:54.643Z,100.00
2023-02-12T19:19:22.634Z,100.00
2023-02-12T19:21:50.722Z,100.00
2023-02-12T19:24:19.036Z,100.00
2023-02-12T19:26:46.951Z,100.00
2023-02-12T19:29:14.900Z,100.00
2023-02-12T19:31:45.312Z,100.00
2023-02-12T19:34:16.970Z,100.00
2023-02-12T19:36:45.146Z,100.00
2023-02-12T19:39:15.517Z,100.00
2023-02-12T19:41:43.361Z,100.00
2023-02-12T19:44:13.232Z,100.00
2023-02-12T19:46:41.404Z,100.00
2023-02-12T19:49:11.427Z,100.00
2023-02-12T19:51:41.688Z,100.00
2023-02-12T19:54:10.295Z,100.00
2023-02-12T19:56:38.288Z,100.00
2023-02-12T19:59:07.160Z,100.00
2023-02-12T20:01:35.481Z,100.00
2023-02-12T20:04:03.692Z,100.00
2023-02-12T20:06:32.754Z,100.00
2023-02-12T20:09:02.028Z,100.00
2023-02-12T20:11:31.246Z,100.00
2023-02-12T20:13:59.154Z,100.00
2023-02-12T20:16:31.178Z,100.00
2023-02-12T20:19:02.091Z,100.00
2023-02-12T20:21:29.804Z,100.00
2023-02-12T20:23:57.819Z,100.00
2023-02-12T20:26:26.997Z,100.00
2023-02-12T20:28:54.855Z,100.00
2023-02-12T20:31:23.943Z,100.00
2023-02-12T20:33:55.391Z,100.00
2023-02-12T20:36:23.693Z,100.00
2023-02-12T20:38:53.224Z,100.00
2023-02-12T20:41:20.941Z,100.00
2023-02-12T20:43:49.965Z,100.00
2023-02-12T20:46:19.879Z,100.00
2023-02-12T20:48:48.044Z,100.00
2023-02-12T20:51:17.611Z,100.00
2023-02-12T20:53:45.703Z,100.00
2023-02-12T20:56:15.584Z,100.00
2023-02-12T20:58:44.880Z,100.00
2023-02-12T21:01:17.093Z,100.00
2023-02-12T21:03:44.670Z,100.00
2023-02-12T21:06:12.672Z,100.00
2023-02-12T21:08:41.585Z,100.00
2023-02-12T21:11:14.579Z,100.00
2023-02-12T21:13:50.341Z,100.00
2023-02-12T21:16:29.531Z,100.00
2023-02-12T21:18:57.390Z,100.00
2023-02-12T21:21:27.018Z,100.00
2023-02-12T21:23:56.888Z,100.00
2023-02-12T21:26:26.013Z,100.00
2023-02-12T21:28:54.555Z,100.00
2023-02-12T21:31:24.303Z,100.00
2023-02-12T21:33:54.660Z,100.00
2023-02-12T21:36:24.712Z,100.00
2023-02-12T21:38:53.044Z,100.00
2023-02-12T21:41:23.300Z,100.00
2023-02-12T21:43:52.495Z,100.00
2023-02-12T21:46:21.038Z,100.00
2023-02-12T21:48:48.806Z,100.00
2023-02-12T21:51:20.245Z,100.00
2023-02-12T21:53:48.030Z,100.00
2023-02-12T21:56:16.306Z,100.00
2023-02-12T21:58:44.173Z,100.00
2023-02-12T22:01:14.136Z,100.00
2023-02-12T22:03:43.962Z,100.00
2023-02-12T22:06:12.851Z,100.00
2023-02-12T22:08:41.750Z,100.00
2023-02-12T22:11:11.702Z,100.00
2023-02-12T22:13:39.808Z,100.00
2023-02-12T22:16:11.053Z,100.00
2023-02-12T22:18:39.028Z,100.00
2023-02-12T22:21:09.687Z,100.00
2023-02-12T22:23:38.778Z,100.00
2023-02-12T22:26:09.293Z,100.00
2023-02-12T22:28:40.982Z,100.00
2023-02-12T22:31:09.238Z,100.00
2023-02-12T22:33:36.886Z,100.00
2023-02-12T22:36:05.473Z,100.00
2023-02-12T22:38:34.329Z,100.00
2023-02-12T22:41:02.179Z,100.00
2023-02-12T22:43:31.693Z,100.00
2023-02-12T22:45:59.764Z,100.00
2023-02-12T22:48:29.191Z,100.00
2023-02-12T22:50:58.226Z,100.00
2023-02-12T22:53:26.575Z,100.00
2023-02-12T22:55:54.369Z,100.00
2023-02-12T22:58:21.980Z,100.00
2023-02-12T23:00:50.938Z,100.00
2023-02-12T23:03:18.504Z,100.00
2023-02-12T23:05:46.104Z,100.00
2023-02-12T23:08:13.664Z,100.00
2023-02-12T23:10:41.295Z,100.00
2023-02-12T23:13:10.447Z,100.00
2023-02-12T23:15:38.116Z,100.00
2023-02-12T23:18:07.085Z,100.00
2023-02-12T23:20:34.674Z,100.00
2023-02-12T23:23:02.257Z,100.00
2023-02-12T23:25:29.882Z,100.00
2023-02-12T23:27:57.467Z,100.00
2023-02-12T23:30:25.116Z,100.00
2023-02-12T23:32:52.691Z,100.00
2023-02-12T23:35:21.639Z,100.00
2023-02-12T23:37:49.243Z,100.00
2023-02-12T23:40:17.133Z,100.00
2023-02-12T23:42:46.496Z,100.00
2023-02-12T23:45:14.504Z,100.00
2023-02-12T23:47:42.572Z,100.00
2023-02-12T23:50:10.904Z,100.00
2023-02-12T23:52:39.849Z,100.00
2023-02-12T23:55:07.915Z,100.00
2023-02-12T23:57:35.762Z,100.00
